sensor_id;sensor_type;location;lat;lon;timestamp;P1;durP1;ratioP1;P2;durP2;ratioP2
18334;SDS011;9293;49.524;10.964;2022-08-26T00:00:16;20.50;;;11.27;;
18334;SDS011;9293;49.524;10.964;2022-08-26T00:02:44;12.93;;;10.95;;
18334;SDS011;9293;49.524;10.964;2022-08-26T00:05:12;20.27;;;12.23;;
18334;SDS011;9293;49.524;10.964;2022-08-26T00:07:40;18.63;;;12.43;;
18334;SDS011;9293;49.524;10.964;2022-08-26T00:10:09;20.60;;;12.38;;
18334;SDS011;9293;49.524;10.964;2022-08-26T00:12:38;17.20;;;11.95;;
18334;SDS011;9293;49.524;10.964;2022-08-26T00:15:07;15.50;;;13.40;;
18334;SDS011;9293;49.524;10.964;2022-08-26T00:17:37;19.70;;;12.70;;
18334;SDS011;9293;49.524;10.964;2022-08-26T00:20:06;19.00;;;12.52;;
18334;SDS011;9293;49.524;10.964;2022-08-26T00:22:37;14.20;;;12.40;;
18334;SDS011;9293;49.524;10.964;2022-08-26T00:25:05;16.75;;;12.75;;
18334;SDS011;9293;49.524;10.964;2022-08-26T00:27:35;14.27;;;12.50;;
18334;SDS011;9293;49.524;10.964;2022-08-26T00:30:04;16.25;;;11.90;;
18334;SDS011;9293;49.524;10.964;2022-08-26T00:32:35;14.80;;;12.30;;
18334;SDS011;9293;49.524;10.964;2022-08-26T00:35:05;15.95;;;11.73;;
18334;SDS011;9293;49.524;10.964;2022-08-26T00:37:33;15.57;;;12.48;;
18334;SDS011;9293;49.524;10.964;2022-08-26T00:40:02;18.58;;;12.48;;
18334;SDS011;9293;49.524;10.964;2022-08-26T00:42:32;19.63;;;13.15;;
18334;SDS011;9293;49.524;10.964;2022-08-26T00:45:03;17.55;;;13.32;;
18334;SDS011;9293;49.524;10.964;2022-08-26T00:47:42;16.90;;;12.25;;
18334;SDS011;9293;49.524;10.964;2022-08-26T00:50:28;14.82;;;12.05;;
18334;SDS011;9293;49.524;10.964;2022-08-26T00:53:01;18.75;;;12.93;;
18334;SDS011;9293;49.524;10.964;2022-08-26T00:55:32;23.20;;;13.40;;
18334;SDS011;9293;49.524;10.964;2022-08-26T00:58:05;17.38;;;12.75;;
18334;SDS011;9293;49.524;10.964;2022-08-26T01:00:35;16.00;;;12.20;;
18334;SDS011;9293;49.524;10.964;2022-08-26T01:03:03;16.17;;;12.60;;
18334;SDS011;9293;49.524;10.964;2022-08-26T01:05:38;17.48;;;13.32;;
18334;SDS011;9293;49.524;10.964;2022-08-26T01:08:07;16.23;;;13.40;;
18334;SDS011;9293;49.524;10.964;2022-08-26T01:10:36;16.90;;;12.60;;
18334;SDS011;9293;49.524;10.964;2022-08-26T01:13:06;18.92;;;12.55;;
18334;SDS011;9293;49.524;10.964;2022-08-26T01:15:40;16.85;;;12.20;;
18334;SDS011;9293;49.524;10.964;2022-08-26T01:18:13;19.08;;;11.80;;
18334;SDS011;9293;49.524;10.964;2022-08-26T01:23:28;15.20;;;12.48;;
18334;SDS011;9293;49.524;10.964;2022-08-26T01:26:04;17.70;;;13.63;;
18334;SDS011;9293;49.524;10.964;2022-08-26T01:28:44;17.92;;;12.82;;
18334;SDS011;9293;49.524;10.964;2022-08-26T01:31:17;17.17;;;13.20;;
18334;SDS011;9293;49.524;10.964;2022-08-26T01:36:40;20.88;;;12.45;;
18334;SDS011;9293;49.524;10.964;2022-08-26T01:39:15;16.20;;;12.07;;
18334;SDS011;9293;49.524;10.964;2022-08-26T01:41:46;19.80;;;13.55;;
18334;SDS011;9293;49.524;10.964;2022-08-26T01:44:20;18.27;;;12.48;;
18334;SDS011;9293;49.524;10.964;2022-08-26T01:46:51;16.13;;;12.65;;
18334;SDS011;9293;49.524;10.964;2022-08-26T01:49:21;18.25;;;12.75;;
18334;SDS011;9293;49.524;10.964;2022-08-26T01:51:51;15.15;;;13.55;;
18334;SDS011;9293;49.524;10.964;2022-08-26T01:54:23;19.77;;;13.48;;
18334;SDS011;9293;49.524;10.964;2022-08-26T01:56:52;15.13;;;13.52;;
18334;SDS011;9293;49.524;10.964;2022-08-26T01:59:21;15.98;;;11.75;;
18334;SDS011;9293;49.524;10.964;2022-08-26T02:01:51;20.02;;;13.55;;
18334;SDS011;9293;49.524;10.964;2022-08-26T02:04:27;16.15;;;13.07;;
18334;SDS011;9293;49.524;10.964;2022-08-26T02:07:03;16.40;;;12.93;;
18334;SDS011;9293;49.524;10.964;2022-08-26T02:09:35;14.93;;;12.07;;
18334;SDS011;9293;49.524;10.964;2022-08-26T02:12:06;17.50;;;13.82;;
18334;SDS011;9293;49.524;10.964;2022-08-26T02:14:37;18.17;;;12.60;;
18334;SDS011;9293;49.524;10.964;2022-08-26T02:17:13;17.00;;;13.20;;
18334;SDS011;9293;49.524;10.964;2022-08-26T02:19:47;18.80;;;13.77;;
18334;SDS011;9293;49.524;10.964;2022-08-26T02:22:18;17.13;;;14.10;;
18334;SDS011;9293;49.524;10.964;2022-08-26T02:24:57;22.95;;;12.73;;
18334;SDS011;9293;49.524;10.964;2022-08-26T02:27:29;17.15;;;13.43;;
18334;SDS011;9293;49.524;10.964;2022-08-26T02:32:31;19.35;;;15.88;;
18334;SDS011;9293;49.524;10.964;2022-08-26T02:35:00;25.52;;;15.85;;
18334;SDS011;9293;49.524;10.964;2022-08-26T02:37:29;22.05;;;16.52;;
18334;SDS011;9293;49.524;10.964;2022-08-26T02:39:59;19.58;;;16.70;;
18334;SDS011;9293;49.524;10.964;2022-08-26T02:42:28;23.88;;;16.02;;
18334;SDS011;9293;49.524;10.964;2022-08-26T02:44:56;18.05;;;16.10;;
18334;SDS011;9293;49.524;10.964;2022-08-26T02:47:25;20.38;;;16.65;;
18334;SDS011;9293;49.524;10.964;2022-08-26T02:49:57;23.42;;;15.10;;
18334;SDS011;9293;49.524;10.964;2022-08-26T02:52:25;20.02;;;15.10;;
18334;SDS011;9293;49.524;10.964;2022-08-26T02:54:54;21.23;;;14.35;;
18334;SDS011;9293;49.524;10.964;2022-08-26T02:57:21;18.65;;;15.60;;
18334;SDS011;9293;49.524;10.964;2022-08-26T02:59:49;18.55;;;15.05;;
18334;SDS011;9293;49.524;10.964;2022-08-26T03:02:17;19.23;;;16.30;;
18334;SDS011;9293;49.524;10.964;2022-08-26T03:04:46;21.50;;;14.70;;
18334;SDS011;9293;49.524;10.964;2022-08-26T03:07:30;19.95;;;15.30;;
18334;SDS011;9293;49.524;10.964;2022-08-26T03:09:59;15.70;;;14.02;;
18334;SDS011;9293;49.524;10.964;2022-08-26T03:12:34;23.60;;;15.00;;
18334;SDS011;9293;49.524;10.964;2022-08-26T03:15:03;17.00;;;14.27;;
18334;SDS011;9293;49.524;10.964;2022-08-26T03:17:43;19.58;;;15.57;;
18334;SDS011;9293;49.524;10.964;2022-08-26T03:20:16;19.98;;;15.55;;
18334;SDS011;9293;49.524;10.964;2022-08-26T03:22:44;16.80;;;14.45;;
18334;SDS011;9293;49.524;10.964;2022-08-26T03:25:14;24.30;;;15.32;;
18334;SDS011;9293;49.524;10.964;2022-08-26T03:27:43;20.00;;;14.73;;
18334;SDS011;9293;49.524;10.964;2022-08-26T03:30:12;18.73;;;14.90;;
18334;SDS011;9293;49.524;10.964;2022-08-26T03:33:00;17.90;;;14.63;;
18334;SDS011;9293;49.524;10.964;2022-08-26T03:35:29;18.85;;;15.10;;
18334;SDS011;9293;49.524;10.964;2022-08-26T03:38:02;16.95;;;14.75;;
18334;SDS011;9293;49.524;10.964;2022-08-26T03:40:34;22.40;;;15.68;;
18334;SDS011;9293;49.524;10.964;2022-08-26T03:43:04;20.05;;;14.15;;
18334;SDS011;9293;49.524;10.964;2022-08-26T03:45:35;16.73;;;13.85;;
18334;SDS011;9293;49.524;10.964;2022-08-26T03:48:03;18.02;;;13.30;;
18334;SDS011;9293;49.524;10.964;2022-08-26T03:50:32;16.48;;;14.43;;
18334;SDS011;9293;49.524;10.964;2022-08-26T03:53:01;19.35;;;14.18;;
18334;SDS011;9293;49.524;10.964;2022-08-26T03:55:32;19.88;;;14.73;;
18334;SDS011;9293;49.524;10.964;2022-08-26T03:58:00;21.95;;;15.18;;
18334;SDS011;9293;49.524;10.964;2022-08-26T04:00:31;18.30;;;14.43;;
18334;SDS011;9293;49.524;10.964;2022-08-26T04:03:01;21.65;;;14.63;;
18334;SDS011;9293;49.524;10.964;2022-08-26T04:05:29;18.60;;;14.32;;
18334;SDS011;9293;49.524;10.964;2022-08-26T04:07:57;22.17;;;14.82;;
18334;SDS011;9293;49.524;10.964;2022-08-26T04:10:26;18.33;;;14.38;;
18334;SDS011;9293;49.524;10.964;2022-08-26T04:12:55;17.48;;;14.43;;
18334;SDS011;9293;49.524;10.964;2022-08-26T04:15:24;21.20;;;15.15;;
18334;SDS011;9293;49.524;10.964;2022-08-26T04:17:53;21.58;;;15.75;;
18334;SDS011;9293;49.524;10.964;2022-08-26T04:20:23;23.23;;;15.90;;
18334;SDS011;9293;49.524;10.964;2022-08-26T04:22:51;17.83;;;14.55;;
18334;SDS011;9293;49.524;10.964;2022-08-26T04:25:19;22.23;;;15.73;;
18334;SDS011;9293;49.524;10.964;2022-08-26T04:27:49;22.17;;;16.42;;
18334;SDS011;9293;49.524;10.964;2022-08-26T04:30:17;19.60;;;16.02;;
18334;SDS011;9293;49.524;10.964;2022-08-26T04:32:47;25.17;;;18.85;;
18334;SDS011;9293;49.524;10.964;2022-08-26T04:35:15;25.48;;;18.02;;
18334;SDS011;9293;49.524;10.964;2022-08-26T04:37:48;24.48;;;18.88;;
18334;SDS011;9293;49.524;10.964;2022-08-26T04:40:16;25.08;;;18.48;;
18334;SDS011;9293;49.524;10.964;2022-08-26T04:42:45;26.08;;;17.58;;
18334;SDS011;9293;49.524;10.964;2022-08-26T04:45:13;25.63;;;18.60;;
18334;SDS011;9293;49.524;10.964;2022-08-26T04:47:42;28.67;;;18.50;;
18334;SDS011;9293;49.524;10.964;2022-08-26T04:50:10;28.13;;;20.20;;
18334;SDS011;9293;49.524;10.964;2022-08-26T04:52:39;23.70;;;17.33;;
18334;SDS011;9293;49.524;10.964;2022-08-26T04:55:08;27.73;;;19.90;;
18334;SDS011;9293;49.524;10.964;2022-08-26T04:57:36;25.42;;;17.10;;
18334;SDS011;9293;49.524;10.964;2022-08-26T05:00:07;22.10;;;16.73;;
18334;SDS011;9293;49.524;10.964;2022-08-26T05:02:40;24.15;;;17.77;;
18334;SDS011;9293;49.524;10.964;2022-08-26T05:05:08;24.17;;;18.45;;
18334;SDS011;9293;49.524;10.964;2022-08-26T05:07:36;22.30;;;18.95;;
18334;SDS011;9293;49.524;10.964;2022-08-26T05:10:04;23.10;;;18.85;;
18334;SDS011;9293;49.524;10.964;2022-08-26T05:12:34;26.25;;;17.90;;
18334;SDS011;9293;49.524;10.964;2022-08-26T05:15:03;21.33;;;17.20;;
18334;SDS011;9293;49.524;10.964;2022-08-26T05:17:31;24.88;;;17.67;;
18334;SDS011;9293;49.524;10.964;2022-08-26T05:19:59;20.90;;;17.38;;
18334;SDS011;9293;49.524;10.964;2022-08-26T05:22:29;25.40;;;16.88;;
18334;SDS011;9293;49.524;10.964;2022-08-26T05:24:57;20.15;;;17.10;;
18334;SDS011;9293;49.524;10.964;2022-08-26T05:27:25;22.15;;;16.40;;
18334;SDS011;9293;49.524;10.964;2022-08-26T05:29:56;20.50;;;15.75;;
18334;SDS011;9293;49.524;10.964;2022-08-26T05:32:24;21.98;;;15.88;;
18334;SDS011;9293;49.524;10.964;2022-08-26T05:34:54;22.70;;;16.13;;
18334;SDS011;9293;49.524;10.964;2022-08-26T05:37:23;22.42;;;16.38;;
18334;SDS011;9293;49.524;10.964;2022-08-26T05:39:51;23.80;;;16.25;;
18334;SDS011;9293;49.524;10.964;2022-08-26T05:42:19;31.88;;;16.88;;
18334;SDS011;9293;49.524;10.964;2022-08-26T05:44:51;20.95;;;16.52;;
18334;SDS011;9293;49.524;10.964;2022-08-26T05:47:21;23.23;;;16.70;;
18334;SDS011;9293;49.524;10.964;2022-08-26T05:49:50;25.55;;;17.27;;
18334;SDS011;9293;49.524;10.964;2022-08-26T05:52:18;24.05;;;18.95;;
18334;SDS011;9293;49.524;10.964;2022-08-26T05:54:51;22.40;;;18.90;;
18334;SDS011;9293;49.524;10.964;2022-08-26T05:57:19;25.50;;;18.77;;
18334;SDS011;9293;49.524;10.964;2022-08-26T05:59:48;22.17;;;18.17;;
18334;SDS011;9293;49.524;10.964;2022-08-26T06:02:17;22.33;;;18.13;;
18334;SDS011;9293;49.524;10.964;2022-08-26T06:04:45;21.70;;;17.70;;
18334;SDS011;9293;49.524;10.964;2022-08-26T06:07:14;22.20;;;16.13;;
18334;SDS011;9293;49.524;10.964;2022-08-26T06:09:46;23.88;;;17.67;;
18334;SDS011;9293;49.524;10.964;2022-08-26T06:12:17;24.42;;;16.35;;
18334;SDS011;9293;49.524;10.964;2022-08-26T06:14:45;17.95;;;15.48;;
18334;SDS011;9293;49.524;10.964;2022-08-26T06:17:14;24.67;;;15.98;;
18334;SDS011;9293;49.524;10.964;2022-08-26T06:19:53;25.48;;;14.93;;
18334;SDS011;9293;49.524;10.964;2022-08-26T06:22:21;26.83;;;15.55;;
18334;SDS011;9293;49.524;10.964;2022-08-26T06:25:08;28.05;;;16.00;;
18334;SDS011;9293;49.524;10.964;2022-08-26T06:27:54;21.88;;;15.40;;
18334;SDS011;9293;49.524;10.964;2022-08-26T06:30:23;22.45;;;14.95;;
18334;SDS011;9293;49.524;10.964;2022-08-26T06:32:51;21.10;;;15.27;;
18334;SDS011;9293;49.524;10.964;2022-08-26T06:35:20;25.88;;;16.02;;
18334;SDS011;9293;49.524;10.964;2022-08-26T06:37:49;27.77;;;15.07;;
18334;SDS011;9293;49.524;10.964;2022-08-26T06:40:17;27.40;;;15.13;;
18334;SDS011;9293;49.524;10.964;2022-08-26T06:42:45;21.88;;;15.13;;
18334;SDS011;9293;49.524;10.964;2022-08-26T06:45:13;27.92;;;14.70;;
18334;SDS011;9293;49.524;10.964;2022-08-26T06:47:42;26.77;;;15.07;;
18334;SDS011;9293;49.524;10.964;2022-08-26T06:50:14;27.77;;;15.18;;
18334;SDS011;9293;49.524;10.964;2022-08-26T06:52:43;24.08;;;14.57;;
18334;SDS011;9293;49.524;10.964;2022-08-26T06:55:11;22.83;;;13.07;;
18334;SDS011;9293;49.524;10.964;2022-08-26T06:57:43;23.13;;;13.10;;
18334;SDS011;9293;49.524;10.964;2022-08-26T07:00:14;22.70;;;12.32;;
18334;SDS011;9293;49.524;10.964;2022-08-26T07:02:45;25.55;;;11.95;;
18334;SDS011;9293;49.524;10.964;2022-08-26T07:05:13;23.90;;;11.57;;
18334;SDS011;9293;49.524;10.964;2022-08-26T07:07:41;19.92;;;10.70;;
18334;SDS011;9293;49.524;10.964;2022-08-26T07:10:09;20.58;;;10.95;;
18334;SDS011;9293;49.524;10.964;2022-08-26T07:12:37;26.77;;;12.35;;
18334;SDS011;9293;49.524;10.964;2022-08-26T07:15:06;18.90;;;10.73;;
18334;SDS011;9293;49.524;10.964;2022-08-26T07:17:34;20.23;;;10.98;;
18334;SDS011;9293;49.524;10.964;2022-08-26T07:20:03;22.67;;;11.30;;
18334;SDS011;9293;49.524;10.964;2022-08-26T07:22:34;29.83;;;11.10;;
18334;SDS011;9293;49.524;10.964;2022-08-26T07:25:04;18.98;;;10.23;;
18334;SDS011;9293;49.524;10.964;2022-08-26T07:27:37;22.27;;;10.35;;
18334;SDS011;9293;49.524;10.964;2022-08-26T07:30:05;25.95;;;10.20;;
18334;SDS011;9293;49.524;10.964;2022-08-26T07:32:34;24.85;;;12.13;;
18334;SDS011;9293;49.524;10.964;2022-08-26T07:35:04;17.25;;;10.05;;
18334;SDS011;9293;49.524;10.964;2022-08-26T07:37:32;24.10;;;10.57;;
18334;SDS011;9293;49.524;10.964;2022-08-26T07:40:04;23.98;;;10.23;;
18334;SDS011;9293;49.524;10.964;2022-08-26T07:42:34;20.85;;;10.32;;
18334;SDS011;9293;49.524;10.964;2022-08-26T07:45:02;21.98;;;10.35;;
18334;SDS011;9293;49.524;10.964;2022-08-26T07:47:31;19.75;;;10.60;;
18334;SDS011;9293;49.524;10.964;2022-08-26T07:49:59;24.10;;;10.68;;
18334;SDS011;9293;49.524;10.964;2022-08-26T07:52:28;20.38;;;9.77;;
18334;SDS011;9293;49.524;10.964;2022-08-26T07:54:57;27.83;;;10.00;;
18334;SDS011;9293;49.524;10.964;2022-08-26T07:57:27;21.92;;;10.20;;
18334;SDS011;9293;49.524;10.964;2022-08-26T07:59:56;20.17;;;9.85;;
18334;SDS011;9293;49.524;10.964;2022-08-26T08:02:26;20.30;;;9.68;;
18334;SDS011;9293;49.524;10.964;2022-08-26T08:04:56;23.02;;;9.32;;
18334;SDS011;9293;49.524;10.964;2022-08-26T08:07:25;23.80;;;9.88;;
18334;SDS011;9293;49.524;10.964;2022-08-26T08:10:15;23.13;;;8.93;;
18334;SDS011;9293;49.524;10.964;2022-08-26T08:12:53;22.08;;;9.40;;
18334;SDS011;9293;49.524;10.964;2022-08-26T08:15:23;18.75;;;9.13;;
18334;SDS011;9293;49.524;10.964;2022-08-26T08:17:54;18.08;;;9.68;;
18334;SDS011;9293;49.524;10.964;2022-08-26T08:20:26;19.17;;;9.15;;
18334;SDS011;9293;49.524;10.964;2022-08-26T08:22:55;21.10;;;9.50;;
18334;SDS011;9293;49.524;10.964;2022-08-26T08:25:23;26.02;;;8.85;;
18334;SDS011;9293;49.524;10.964;2022-08-26T08:27:51;24.50;;;9.02;;
18334;SDS011;9293;49.524;10.964;2022-08-26T08:30:20;20.95;;;8.00;;
18334;SDS011;9293;49.524;10.964;2022-08-26T08:32:49;20.35;;;8.85;;
18334;SDS011;9293;49.524;10.964;2022-08-26T08:35:18;21.55;;;9.32;;
18334;SDS011;9293;49.524;10.964;2022-08-26T08:37:50;22.30;;;9.15;;
18334;SDS011;9293;49.524;10.964;2022-08-26T08:40:23;20.50;;;9.10;;
18334;SDS011;9293;49.524;10.964;2022-08-26T08:43:01;19.88;;;8.98;;
18334;SDS011;9293;49.524;10.964;2022-08-26T08:45:37;21.42;;;8.70;;
18334;SDS011;9293;49.524;10.964;2022-08-26T08:48:16;16.38;;;8.93;;
18334;SDS011;9293;49.524;10.964;2022-08-26T08:50:56;19.85;;;9.05;;
18334;SDS011;9293;49.524;10.964;2022-08-26T08:53:37;19.33;;;8.52;;
18334;SDS011;9293;49.524;10.964;2022-08-26T08:56:18;26.63;;;9.40;;
18334;SDS011;9293;49.524;10.964;2022-08-26T08:59:43;23.38;;;9.52;;
18334;SDS011;9293;49.524;10.964;2022-08-26T09:04:47;21.17;;;8.98;;
18334;SDS011;9293;49.524;10.964;2022-08-26T09:08:07;16.88;;;9.07;;
18334;SDS011;9293;49.524;10.964;2022-08-26T09:13:11;16.67;;;8.43;;
18334;SDS011;9293;49.524;10.964;2022-08-26T09:21:32;22.38;;;8.73;;
18334;SDS011;9293;49.524;10.964;2022-08-26T09:24:00;18.65;;;8.60;;
18334;SDS011;9293;49.524;10.964;2022-08-26T09:26:29;17.02;;;8.82;;
18334;SDS011;9293;49.524;10.964;2022-08-26T09:29:19;26.77;;;8.98;;
18334;SDS011;9293;49.524;10.964;2022-08-26T09:31:50;25.90;;;10.13;;
18334;SDS011;9293;49.524;10.964;2022-08-26T09:34:24;22.60;;;8.65;;
18334;SDS011;9293;49.524;10.964;2022-08-26T09:36:57;19.25;;;9.25;;
18334;SDS011;9293;49.524;10.964;2022-08-26T09:40:12;25.30;;;9.55;;
18334;SDS011;9293;49.524;10.964;2022-08-26T09:45:52;18.90;;;8.48;;
18334;SDS011;9293;49.524;10.964;2022-08-26T09:48:27;22.38;;;9.13;;
18334;SDS011;9293;49.524;10.964;2022-08-26T09:50:57;22.70;;;8.60;;
18334;SDS011;9293;49.524;10.964;2022-08-26T09:53:28;21.92;;;8.18;;
18334;SDS011;9293;49.524;10.964;2022-08-26T09:56:11;22.13;;;7.57;;
18334;SDS011;9293;49.524;10.964;2022-08-26T09:58:58;24.17;;;7.80;;
18334;SDS011;9293;49.524;10.964;2022-08-26T10:01:37;17.23;;;6.70;;
18334;SDS011;9293;49.524;10.964;2022-08-26T10:06:42;19.95;;;7.13;;
18334;SDS011;9293;49.524;10.964;2022-08-26T10:09:20;18.65;;;7.82;;
18334;SDS011;9293;49.524;10.964;2022-08-26T10:11:54;18.48;;;7.40;;
18334;SDS011;9293;49.524;10.964;2022-08-26T10:14:46;26.83;;;7.25;;
18334;SDS011;9293;49.524;10.964;2022-08-26T10:17:24;22.40;;;8.30;;
18334;SDS011;9293;49.524;10.964;2022-08-26T10:20:22;19.42;;;7.55;;
18334;SDS011;9293;49.524;10.964;2022-08-26T10:22:59;15.40;;;6.72;;
18334;SDS011;9293;49.524;10.964;2022-08-26T10:31:03;16.70;;;7.47;;
18334;SDS011;9293;49.524;10.964;2022-08-26T10:33:53;16.30;;;7.07;;
18334;SDS011;9293;49.524;10.964;2022-08-26T10:36:26;18.55;;;8.00;;
18334;SDS011;9293;49.524;10.964;2022-08-26T10:42:21;17.35;;;7.07;;
18334;SDS011;9293;49.524;10.964;2022-08-26T10:45:13;13.10;;;6.70;;
18334;SDS011;9293;49.524;10.964;2022-08-26T10:47:47;22.38;;;7.07;;
18334;SDS011;9293;49.524;10.964;2022-08-26T10:50:30;18.17;;;6.88;;
18334;SDS011;9293;49.524;10.964;2022-08-26T10:56:10;16.85;;;6.35;;
18334;SDS011;9293;49.524;10.964;2022-08-26T10:59:00;19.25;;;7.30;;
18334;SDS011;9293;49.524;10.964;2022-08-26T11:02:14;15.20;;;6.78;;
18334;SDS011;9293;49.524;10.964;2022-08-26T11:05:05;18.42;;;6.18;;
18334;SDS011;9293;49.524;10.964;2022-08-26T11:07:49;21.60;;;6.57;;
18334;SDS011;9293;49.524;10.964;2022-08-26T11:17:59;20.48;;;6.13;;
18334;SDS011;9293;49.524;10.964;2022-08-26T11:20:33;14.82;;;6.72;;
18334;SDS011;9293;49.524;10.964;2022-08-26T11:28:45;16.50;;;6.80;;
18334;SDS011;9293;49.524;10.964;2022-08-26T11:33:54;10.88;;;5.95;;
18334;SDS011;9293;49.524;10.964;2022-08-26T11:36:34;14.25;;;6.55;;
18334;SDS011;9293;49.524;10.964;2022-08-26T11:39:17;19.63;;;6.75;;
18334;SDS011;9293;49.524;10.964;2022-08-26T11:41:46;14.50;;;5.65;;
18334;SDS011;9293;49.524;10.964;2022-08-26T11:44:40;12.88;;;5.78;;
18334;SDS011;9293;49.524;10.964;2022-08-26T11:47:15;17.63;;;6.38;;
18334;SDS011;9293;49.524;10.964;2022-08-26T11:50:07;18.33;;;6.20;;
18334;SDS011;9293;49.524;10.964;2022-08-26T11:52:37;19.90;;;5.93;;
18334;SDS011;9293;49.524;10.964;2022-08-26T11:55:07;17.85;;;5.88;;
18334;SDS011;9293;49.524;10.964;2022-08-26T11:57:46;15.13;;;5.30;;
18334;SDS011;9293;49.524;10.964;2022-08-26T12:00:28;17.15;;;7.78;;
18334;SDS011;9293;49.524;10.964;2022-08-26T12:03:01;15.40;;;6.30;;
18334;SDS011;9293;49.524;10.964;2022-08-26T12:05:34;14.20;;;5.72;;
18334;SDS011;9293;49.524;10.964;2022-08-26T12:08:06;15.57;;;5.82;;
18334;SDS011;9293;49.524;10.964;2022-08-26T12:10:37;11.90;;;6.03;;
18334;SDS011;9293;49.524;10.964;2022-08-26T12:13:06;14.48;;;5.93;;
18334;SDS011;9293;49.524;10.964;2022-08-26T12:15:35;7.55;;;5.35;;
18334;SDS011;9293;49.524;10.964;2022-08-26T12:18:21;12.15;;;5.38;;
18334;SDS011;9293;49.524;10.964;2022-08-26T12:20:56;17.58;;;5.72;;
18334;SDS011;9293;49.524;10.964;2022-08-26T12:23:44;16.77;;;5.70;;
18334;SDS011;9293;49.524;10.964;2022-08-26T12:28:58;14.93;;;5.32;;
18334;SDS011;9293;49.524;10.964;2022-08-26T12:31:46;11.32;;;5.55;;
18334;SDS011;9293;49.524;10.964;2022-08-26T12:34:14;15.50;;;5.28;;
18334;SDS011;9293;49.524;10.964;2022-08-26T12:36:54;16.42;;;5.97;;
18334;SDS011;9293;49.524;10.964;2022-08-26T12:39:32;15.80;;;5.38;;
18334;SDS011;9293;49.524;10.964;2022-08-26T12:42:19;9.90;;;5.38;;
18334;SDS011;9293;49.524;10.964;2022-08-26T12:44:57;13.10;;;5.15;;
18334;SDS011;9293;49.524;10.964;2022-08-26T12:47:28;17.40;;;5.45;;
18334;SDS011;9293;49.524;10.964;2022-08-26T12:52:52;16.70;;;4.70;;
18334;SDS011;9293;49.524;10.964;2022-08-26T12:55:44;15.23;;;4.88;;
18334;SDS011;9293;49.524;10.964;2022-08-26T12:58:50;17.50;;;5.20;;
18334;SDS011;9293;49.524;10.964;2022-08-26T13:03:40;16.27;;;4.97;;
18334;SDS011;9293;49.524;10.964;2022-08-26T13:06:15;12.35;;;4.65;;
18334;SDS011;9293;49.524;10.964;2022-08-26T13:08:54;14.85;;;5.03;;
18334;SDS011;9293;49.524;10.964;2022-08-26T13:11:32;9.40;;;4.50;;
18334;SDS011;9293;49.524;10.964;2022-08-26T13:14:03;11.43;;;4.90;;
18334;SDS011;9293;49.524;10.964;2022-08-26T13:16:49;18.10;;;5.65;;
18334;SDS011;9293;49.524;10.964;2022-08-26T13:19:22;11.98;;;5.15;;
18334;SDS011;9293;49.524;10.964;2022-08-26T13:21:52;16.13;;;5.13;;
18334;SDS011;9293;49.524;10.964;2022-08-26T13:27:26;15.27;;;5.38;;
18334;SDS011;9293;49.524;10.964;2022-08-26T13:29:54;15.75;;;5.00;;
18334;SDS011;9293;49.524;10.964;2022-08-26T13:32:24;10.60;;;4.93;;
18334;SDS011;9293;49.524;10.964;2022-08-26T13:34:53;10.80;;;5.03;;
18334;SDS011;9293;49.524;10.964;2022-08-26T13:37:23;13.88;;;5.80;;
18334;SDS011;9293;49.524;10.964;2022-08-26T13:40:01;17.98;;;5.68;;
18334;SDS011;9293;49.524;10.964;2022-08-26T13:42:33;10.23;;;5.40;;
18334;SDS011;9293;49.524;10.964;2022-08-26T13:45:14;14.93;;;5.40;;
18334;SDS011;9293;49.524;10.964;2022-08-26T13:47:42;14.05;;;5.78;;
18334;SDS011;9293;49.524;10.964;2022-08-26T13:50:10;20.35;;;7.35;;
18334;SDS011;9293;49.524;10.964;2022-08-26T13:52:38;15.98;;;6.97;;
18334;SDS011;9293;49.524;10.964;2022-08-26T13:55:06;15.57;;;5.47;;
18334;SDS011;9293;49.524;10.964;2022-08-26T13:57:35;11.65;;;5.28;;
18334;SDS011;9293;49.524;10.964;2022-08-26T14:00:03;14.00;;;6.07;;
18334;SDS011;9293;49.524;10.964;2022-08-26T14:02:36;15.52;;;6.60;;
18334;SDS011;9293;49.524;10.964;2022-08-26T14:05:04;21.50;;;6.88;;
18334;SDS011;9293;49.524;10.964;2022-08-26T14:07:32;25.75;;;8.00;;
18334;SDS011;9293;49.524;10.964;2022-08-26T14:10:01;28.83;;;9.70;;
18334;SDS011;9293;49.524;10.964;2022-08-26T14:12:38;22.88;;;7.57;;
18334;SDS011;9293;49.524;10.964;2022-08-26T14:15:10;17.40;;;6.88;;
18334;SDS011;9293;49.524;10.964;2022-08-26T14:17:38;17.58;;;7.38;;
18334;SDS011;9293;49.524;10.964;2022-08-26T14:20:07;11.57;;;7.07;;
18334;SDS011;9293;49.524;10.964;2022-08-26T14:22:41;16.67;;;6.70;;
18334;SDS011;9293;49.524;10.964;2022-08-26T14:25:31;12.02;;;5.45;;
18334;SDS011;9293;49.524;10.964;2022-08-26T14:32:27;10.02;;;4.15;;
18334;SDS011;9293;49.524;10.964;2022-08-26T14:34:55;14.32;;;5.57;;
18334;SDS011;9293;49.524;10.964;2022-08-26T14:37:23;10.20;;;5.63;;
18334;SDS011;9293;49.524;10.964;2022-08-26T14:39:52;15.32;;;6.28;;
18334;SDS011;9293;49.524;10.964;2022-08-26T14:42:23;10.97;;;5.70;;
18334;SDS011;9293;49.524;10.964;2022-08-26T14:44:57;11.48;;;6.13;;
18334;SDS011;9293;49.524;10.964;2022-08-26T14:47:28;15.43;;;5.78;;
18334;SDS011;9293;49.524;10.964;2022-08-26T14:49:56;11.15;;;5.57;;
18334;SDS011;9293;49.524;10.964;2022-08-26T14:52:24;8.13;;;4.88;;
18334;SDS011;9293;49.524;10.964;2022-08-26T14:54:52;13.57;;;5.28;;
18334;SDS011;9293;49.524;10.964;2022-08-26T14:57:21;7.60;;;5.38;;
18334;SDS011;9293;49.524;10.964;2022-08-26T14:59:49;14.68;;;5.95;;
18334;SDS011;9293;49.524;10.964;2022-08-26T15:02:17;8.55;;;4.95;;
18334;SDS011;9293;49.524;10.964;2022-08-26T15:04:59;11.48;;;6.40;;
18334;SDS011;9293;49.524;10.964;2022-08-26T15:07:27;11.98;;;6.10;;
18334;SDS011;9293;49.524;10.964;2022-08-26T15:09:55;10.63;;;6.97;;
18334;SDS011;9293;49.524;10.964;2022-08-26T15:12:23;12.80;;;7.88;;
18334;SDS011;9293;49.524;10.964;2022-08-26T15:14:51;13.48;;;8.38;;
18334;SDS011;9293;49.524;10.964;2022-08-26T15:17:20;13.63;;;8.40;;
18334;SDS011;9293;49.524;10.964;2022-08-26T15:19:48;15.38;;;8.30;;
18334;SDS011;9293;49.524;10.964;2022-08-26T15:22:16;16.48;;;8.40;;
18334;SDS011;9293;49.524;10.964;2022-08-26T15:24:44;10.90;;;6.75;;
18334;SDS011;9293;49.524;10.964;2022-08-26T15:27:17;12.50;;;7.00;;
18334;SDS011;9293;49.524;10.964;2022-08-26T15:29:48;10.25;;;6.25;;
18334;SDS011;9293;49.524;10.964;2022-08-26T15:32:20;12.40;;;6.07;;
18334;SDS011;9293;49.524;10.964;2022-08-26T15:34:48;14.70;;;6.60;;
18334;SDS011;9293;49.524;10.964;2022-08-26T15:37:17;13.95;;;6.75;;
18334;SDS011;9293;49.524;10.964;2022-08-26T15:39:45;9.88;;;6.30;;
18334;SDS011;9293;49.524;10.964;2022-08-26T15:42:14;13.82;;;6.30;;
18334;SDS011;9293;49.524;10.964;2022-08-26T15:44:42;13.02;;;6.68;;
18334;SDS011;9293;49.524;10.964;2022-08-26T15:47:11;10.90;;;6.05;;
18334;SDS011;9293;49.524;10.964;2022-08-26T15:49:39;8.23;;;6.15;;
18334;SDS011;9293;49.524;10.964;2022-08-26T15:52:07;11.00;;;6.05;;
18334;SDS011;9293;49.524;10.964;2022-08-26T15:54:35;11.18;;;6.22;;
18334;SDS011;9293;49.524;10.964;2022-08-26T15:57:04;11.57;;;5.70;;
18334;SDS011;9293;49.524;10.964;2022-08-26T15:59:36;12.48;;;5.95;;
18334;SDS011;9293;49.524;10.964;2022-08-26T16:02:04;12.65;;;6.40;;
18334;SDS011;9293;49.524;10.964;2022-08-26T16:04:32;13.82;;;6.25;;
18334;SDS011;9293;49.524;10.964;2022-08-26T16:07:00;16.23;;;7.07;;